ADDS METAR Data INFO
IDs: Format: Raw Decoded Include TAF

Data at: 1941 UTC 17 Feb 2018

KBUF 171854Z 18006KT 10SM OVC140 M01/M09 A3007 RMK AO2 SLP196 T10111094
KBUF 171754Z 23005KT 10SM FEW070 OVC140 M02/M09 A3014 RMK AO2 SLP218 T10171094 11011 21067 58034
KBUF 171654Z 21008KT 10SM FEW100 OVC160 M02/M09 A3018 RMK AO2 SLP230 T10171094
KBUF 171554Z 19011KT 10SM FEW100 OVC190 M02/M08 A3022 RMK AO2 SLP244 T10171083
KBUF 171454Z 19011KT 10SM SCT180 OVC230 M02/M08 A3024 RMK AO2 SLP253 T10221083 58013
KBUF 171354Z 17008KT 10SM SCT180 BKN230 M03/M08 A3026 RMK AO2 SLP259 T10331083
KBUF 171254Z 17007KT 10SM FEW180 BKN230 M06/M09 A3027 RMK AO2 SLP263 T10561089
KBUF 171154Z 17006KT 10SM SCT230 M07/M09 A3028 RMK AO2 SLP267 70004 T10671094 11050 21072 52001
KBUF 171054Z 17006KT 10SM CLR M07/M09 A3029 RMK AO2 SLP267 T10721094
KBUF 170954Z 17008KT 10SM CLR M07/M09 A3027 RMK AO2 SLP264 T10671094
KBUF 170854Z 20006KT 10SM FEW120 M07/M09 A3028 RMK AO2 SLP264 T10671089 50004
KBUF 170754Z 20006KT 10SM CLR M07/M09 A3030 RMK AO2 SLP270 T10671089
KBUF 170654Z 19004KT 6SM HZ FEW100 M06/M09 A3026 RMK AO2 SLP258 T10611094
KBUF 170554Z 24004KT 10SM CLR M05/M09 A3027 RMK AO2 SLP259 T10501094 11033 21050 51008
KBUF 170454Z 26006KT 10SM CLR M05/M10 A3026 RMK AO2 SLP258 T10501100 400611050
KBUF 170354Z 24006KT 10SM CLR M05/M10 A3026 RMK AO2 SLP258 T10501100
KBUF 170254Z 25006KT 10SM CLR M04/M10 A3024 RMK AO2 SLP250 T10441100 51017
KBUF 170154Z 26008KT 10SM FEW035 M04/M10 A3023 RMK AO2 SLP246 T10391100
KBUF 170054Z 28013KT 10SM FEW037 M04/M11 A3022 RMK AO2 SLP241 T10391106
KBUF 162354Z 29011KT 10SM FEW038 M03/M11 A3019 RMK AO2 SLP232 T10331106 10022 21033 53052
KBUF 162254Z 28014G20KT 10SM BKN039 M02/M08 A3013 RMK AO2 SLP211 T10171083
KBUF 162154Z 35010KT 10SM BKN038 BKN045 M01/M06 A3008 RMK AO2 SLP194 SHSN VC E T10111056
KBUF 162054Z 31015KT 10SM BKN034 BKN043 01/M06 A3003 RMK AO2 SLP177 T00061061 53042
KBUF 161954Z 31010KT 10SM BKN035 BKN050 02/M05 A2998 RMK AO2 SLP159 T00171050
KBUF 161854Z 28011KT 10SM SCT028 BKN035 BKN080 BKN200 02/M03 A2994 RMK AO2 SLP145 T00171033
KBUF 161754Z 29015G21KT 10SM SCT014 BKN030 BKN075 02/M03 A2991 RMK AO2 SNE15 SLP134 P0000 60004 T00171028 10028 20006 51034
KBUF 161654Z 28013KT 3SM -SN BR BKN010 OVC017 01/M01 A2987 RMK AO2 SLP122 P0002 T00111006
KBUF 161643Z 29009KT 2SM -SN BR BKN008 OVC016 01/00 A2986 RMK AO2 P0002 T00110000
KBUF 161641Z 28011KT 1/2SM R23/P6000FT -SN BR BKN008 OVC016 01/00 A2986 RMK AO2 SFC VIS 2 P0002 T00110000
KBUF 161554Z 27010KT 1/2SM R23/3500V5000FT SN FG FEW005 BKN011 OVC023 01/00 A2984 RMK AO2 SNB00 SLP112 P0001 T00060000
KBUF 161511Z 27009KT 1 3/4SM -SN BR FEW005 BKN012 OVC025 01/M01 A2982 RMK AO2 SNB00 P0000 T00061006
KBUF 161454Z 28008KT 10SM FEW005 BKN012 OVC027 01/M01 A2981 RMK AO2 DZE26 SLP099 P0000 60001 T00111006 53033
KBUF 161432Z 28008KT 10SM SCT005 BKN012 OVC027 01/M01 A2979 RMK AO2 DZE26 P0000 T00111006
KBUF 161416Z 30008KT 4SM -DZ BR BKN005 BKN010 OVC025 01/M01 A2980 RMK AO2 P0000 T00061006
KBUF 161354Z 28012KT 1SM R23/5500VP6000FT -DZ BR BKN007 OVC013 01/01 A2978 RMK AO2 SLP092 P0001 T00110006
KBUF 161254Z 30007KT 1 1/4SM -DZ BR BKN007 BKN014 OVC020 02/01 A2972 RMK AO2 DZB46 SLP069 P0000 T00170011
KBUF 161246Z 31007KT 1 3/4SM -DZ BR BKN007 BKN014 OVC020 02/01 A2972 RMK AO2 DZB46 P0000 T00170006
KBUF 161154Z 31006KT 7SM OVC018 03/01 A2971 RMK AO2 SLP065 70030 T00280006 10056 20022 51018
KBUF 161054Z 29005KT 7SM OVC019 03/02 A2969 RMK AO2 SLP059 T00330017
KBUF 160954Z 33007KT 5SM BR OVC021 04/03 A2968 RMK AO2 SLP056 T00390028
KBUF 160854Z 00000KT 4SM BR OVC025 04/03 A2965 RMK AO2 SLP045 T00390033 58007
KBUF 160831Z 00000KT 4SM BR BKN026 04/03 A2966 RMK AO2 T00390033
KBUF 160754Z 34003KT 5SM BR CLR 04/04 A2967 RMK AO2 SLP051 T00390039